Time;durP1;ratioP1;P1;durP2;ratioP2;P2;SDS_P1;SDS_P2;PMS_P1;PMS_P2;Temp;Humidity;BMP_temperature;BMP_pressure;BME280_temperature;BME280_humidity;BME280_pressure;Samples;Min_cycle;Max_cycle;Signal;HPM_P1;HPM_P2
2022/03/13 00:00:24;;;;;;;17.88;13.07;;;8.00;99.90;;;;;;5091812;28;20101;-61
2022/03/13 00:02:52;;;;;;;18.20;13.07;;;7.90;99.90;;;;;;5091833;28;20048;-61
2022/03/13 00:05:18;;;;;;;21.23;13.07;;;7.90;99.90;;;;;;5091719;28;20046;-61
2022/03/13 00:07:47;;;;;;;18.60;13.13;;;7.90;99.90;;;;;;5091584;28;20042;-60
2022/03/13 00:10:19;;;;;;;16.67;13.73;;;7.90;99.90;;;;;;5091483;28;20048;-61
2022/03/13 00:12:48;;;;;;;21.55;13.25;;;7.90;99.90;;;;;;5091206;28;20050;-61
2022/03/13 00:15:14;;;;;;;20.17;14.20;;;7.90;99.90;;;;;;5091016;28;20482;-60
2022/03/13 00:17:40;;;;;;;16.83;13.00;;;7.90;99.90;;;;;;5093962;28;20032;-61
2022/03/13 00:20:08;;;;;;;17.30;11.55;;;7.90;99.90;;;;;;5094595;28;20040;-60
2022/03/13 00:22:34;;;;;;;18.73;13.68;;;7.80;99.90;;;;;;5094914;28;20036;-61
2022/03/13 00:25:02;;;;;;;20.88;13.27;;;7.80;99.90;;;;;;5094618;28;20082;-60
2022/03/13 00:27:31;;;;;;;22.23;13.35;;;7.80;99.90;;;;;;5094929;28;20039;-60
2022/03/13 00:29:57;;;;;;;17.48;13.77;;;7.80;99.90;;;;;;5094552;28;20436;-60
2022/03/13 00:32:23;;;;;;;16.70;13.25;;;7.80;99.90;;;;;;5094397;28;20060;-60
2022/03/13 00:34:49;;;;;;;19.23;13.43;;;7.80;99.90;;;;;;5094367;28;20044;-61
2022/03/13 00:37:14;;;;;;;18.02;13.05;;;7.70;99.90;;;;;;5094818;28;20032;-61
2022/03/13 00:39:41;;;;;;;21.02;13.52;;;7.80;99.90;;;;;;5094801;28;20501;-60
2022/03/13 00:42:08;;;;;;;17.98;13.10;;;7.70;99.90;;;;;;5094383;28;20510;-60
2022/03/13 00:44:34;;;;;;;17.95;13.23;;;7.70;99.90;;;;;;5094627;28;20036;-61
2022/03/13 00:47:00;;;;;;;19.58;13.15;;;7.70;99.90;;;;;;5093187;28;20099;-59
2022/03/13 00:49:25;;;;;;;19.02;13.10;;;7.70;99.90;;;;;;5094175;28;20119;-60
2022/03/13 00:51:51;;;;;;;18.98;13.70;;;7.80;99.90;;;;;;5094591;28;20036;-60
2022/03/13 00:54:17;;;;;;;18.70;13.05;;;7.70;99.90;;;;;;5094714;28;20062;-60
2022/03/13 00:56:42;;;;;;;17.90;13.00;;;7.70;99.90;;;;;;5094476;28;20211;-61
2022/03/13 00:59:08;;;;;;;19.48;13.07;;;7.70;99.90;;;;;;5094354;28;20512;-60
2022/03/13 01:01:34;;;;;;;18.73;13.57;;;7.70;99.90;;;;;;5094062;28;20036;-60
2022/03/13 01:03:59;;;;;;;20.17;13.40;;;7.70;99.90;;;;;;5093773;28;20032;-60
2022/03/13 01:06:25;;;;;;;16.77;12.15;;;7.70;99.90;;;;;;5094159;28;20413;-61
2022/03/13 01:08:52;;;;;;;21.02;13.73;;;7.70;99.90;;;;;;5093941;28;20040;-61
2022/03/13 01:11:20;;;;;;;20.73;14.10;;;7.70;99.90;;;;;;5093851;28;20054;-61
2022/03/13 01:13:47;;;;;;;21.05;14.32;;;7.70;99.90;;;;;;5093840;28;20032;-61
2022/03/13 01:16:25;;;;;;;18.55;13.23;;;7.70;99.90;;;;;;5093799;28;20485;-60
2022/03/13 01:18:52;;;;;;;21.50;14.48;;;7.70;99.90;;;;;;5093902;28;20405;-60
2022/03/13 01:21:19;;;;;;;18.08;12.77;;;7.70;99.90;;;;;;5093563;28;20114;-61
2022/03/13 01:23:59;;;;;;;19.35;13.95;;;7.70;99.90;;;;;;5093703;28;20107;-60
2022/03/13 01:26:25;;;;;;;18.02;14.38;;;7.70;99.90;;;;;;5093726;28;20032;-61
2022/03/13 01:28:57;;;;;;;20.05;15.20;;;7.70;99.90;;;;;;5092545;28;20497;-60
2022/03/13 01:31:30;;;;;;;23.70;16.48;;;7.70;99.90;;;;;;5093657;28;20047;-60
2022/03/13 01:33:57;;;;;;;24.15;15.20;;;7.70;99.90;;;;;;5093431;28;20097;-60
2022/03/13 01:36:23;;;;;;;19.67;14.18;;;7.70;99.90;;;;;;5093435;28;20124;-61
2022/03/13 01:38:53;;;;;;;20.23;15.23;;;7.70;99.90;;;;;;5093224;28;20058;-61
2022/03/13 01:41:19;;;;;;;21.73;15.38;;;7.70;99.90;;;;;;5093330;28;20044;-60
2022/03/13 01:43:45;;;;;;;19.98;14.52;;;7.70;99.90;;;;;;5093398;28;20085;-61
2022/03/13 01:46:11;;;;;;;19.83;14.23;;;7.70;99.90;;;;;;5093439;28;20110;-61
2022/03/13 01:49:11;;;;;;;18.00;13.75;;;7.60;99.90;;;;;;5093289;28;20206;-61
2022/03/13 01:51:38;;;;;;;17.10;13.45;;;7.60;99.90;;;;;;5092582;28;20067;-61
2022/03/13 01:54:09;;;;;;;20.48;14.55;;;7.60;99.90;;;;;;5093145;28;20115;-61
2022/03/13 01:56:36;;;;;;;23.98;14.50;;;7.60;99.90;;;;;;5093545;28;20035;-61
2022/03/13 01:59:03;;;;;;;23.17;15.05;;;7.50;99.90;;;;;;5093403;28;20360;-61
2022/03/13 02:01:30;;;;;;;18.80;14.43;;;7.50;99.90;;;;;;5093174;28;20155;-60
2022/03/13 02:03:56;;;;;;;18.05;14.02;;;7.50;99.90;;;;;;5093036;28;20043;-60
2022/03/13 02:06:26;;;;;;;19.52;13.80;;;7.50;99.90;;;;;;5092783;28;20040;-61
2022/03/13 02:08:53;;;;;;;22.98;14.55;;;7.50;99.90;;;;;;5092851;28;20383;-60
2022/03/13 02:11:24;;;;;;;21.20;14.30;;;7.50;99.90;;;;;;5092819;28;20123;-60
2022/03/13 02:13:53;;;;;;;21.83;14.75;;;7.50;99.90;;;;;;5092715;28;20047;-60
2022/03/13 02:16:20;;;;;;;20.45;14.13;;;7.50;99.90;;;;;;5092729;28;20039;-59
2022/03/13 02:18:53;;;;;;;20.88;15.10;;;7.50;99.90;;;;;;5092781;28;20040;-59
2022/03/13 02:21:24;;;;;;;19.13;14.05;;;7.50;99.90;;;;;;5093012;28;20044;-59
2022/03/13 02:23:49;;;;;;;21.13;15.43;;;7.50;99.90;;;;;;5092720;28;20039;-59
2022/03/13 02:26:15;;;;;;;18.33;14.80;;;7.50;99.90;;;;;;5092644;28;20039;-59
2022/03/13 02:28:51;;;;;;;21.85;13.85;;;7.50;99.90;;;;;;5092526;28;20144;-59
2022/03/13 02:31:25;;;;;;;18.67;14.27;;;7.50;99.90;;;;;;5090842;28;20537;-59
2022/03/13 02:33:53;;;;;;;19.77;13.75;;;7.50;99.90;;;;;;5092445;28;20048;-60
2022/03/13 02:36:23;;;;;;;20.23;15.05;;;7.40;99.90;;;;;;5092688;28;20040;-59
2022/03/13 02:38:48;;;;;;;19.40;14.02;;;7.40;99.90;;;;;;5092365;28;20092;-59
2022/03/13 02:41:14;;;;;;;22.13;14.18;;;7.40;99.90;;;;;;5092038;28;20040;-59
2022/03/13 02:43:40;;;;;;;22.73;14.40;;;7.40;99.90;;;;;;5092404;28;20032;-60
2022/03/13 02:46:19;;;;;;;21.10;15.30;;;7.40;99.90;;;;;;5092265;28;20036;-59
2022/03/13 02:48:45;;;;;;;17.98;13.88;;;7.50;99.90;;;;;;5092548;28;20126;-59
2022/03/13 02:51:11;;;;;;;16.10;13.15;;;7.50;99.90;;;;;;5092568;28;20039;-60
2022/03/13 02:53:38;;;;;;;19.25;14.35;;;7.50;99.90;;;;;;5092382;28;20036;-60
2022/03/13 02:56:05;;;;;;;18.15;14.55;;;7.50;99.90;;;;;;5091033;28;20072;-59
2022/03/13 02:58:35;;;;;;;19.45;14.60;;;7.60;99.90;;;;;;5092162;28;20050;-59
2022/03/13 03:01:01;;;;;;;21.25;14.90;;;7.60;99.90;;;;;;5092223;28;20036;-59
2022/03/13 03:03:27;;;;;;;22.33;15.30;;;7.60;99.90;;;;;;5092154;28;20055;-59
2022/03/13 03:05:53;;;;;;;20.20;14.48;;;7.60;99.90;;;;;;5092671;28;20190;-59
2022/03/13 03:08:19;;;;;;;21.02;14.77;;;7.60;99.90;;;;;;5092066;28;20040;-60
2022/03/13 03:10:46;;;;;;;23.48;14.32;;;7.60;99.90;;;;;;5092187;28;20036;-60
2022/03/13 03:13:14;;;;;;;24.05;14.20;;;7.60;99.90;;;;;;5091784;28;20040;-59
2022/03/13 03:15:40;;;;;;;21.25;14.75;;;7.50;99.90;;;;;;5092106;28;20115;-60
2022/03/13 03:18:10;;;;;;;17.67;14.50;;;7.50;99.90;;;;;;5092175;28;20068;-59
2022/03/13 03:20:39;;;;;;;19.60;15.15;;;7.50;99.90;;;;;;5092333;28;20151;-59
2022/03/13 03:23:05;;;;;;;19.70;14.85;;;7.50;99.90;;;;;;5091915;28;20207;-60
2022/03/13 03:25:31;;;;;;;27.10;15.50;;;7.50;99.90;;;;;;5091738;28;20536;-60
2022/03/13 03:27:58;;;;;;;18.73;14.88;;;7.50;99.90;;;;;;5092185;28;20036;-60
2022/03/13 03:30:27;;;;;;;20.35;14.27;;;7.50;99.90;;;;;;5092007;28;20397;-59
2022/03/13 03:32:54;;;;;;;22.65;15.13;;;7.50;99.90;;;;;;5091511;28;20131;-60
2022/03/13 03:35:23;;;;;;;19.38;14.57;;;7.40;99.90;;;;;;5091462;28;20049;-60
2022/03/13 03:37:50;;;;;;;25.73;14.98;;;7.40;99.90;;;;;;5091530;28;20040;-59
2022/03/13 03:40:16;;;;;;;21.85;15.10;;;7.30;99.90;;;;;;5091416;28;20103;-60
2022/03/13 03:42:42;;;;;;;17.45;14.10;;;7.30;99.90;;;;;;5091748;28;20455;-60
2022/03/13 03:45:09;;;;;;;19.75;14.82;;;7.30;99.90;;;;;;5091520;28;20036;-60
2022/03/13 03:47:35;;;;;;;20.50;14.82;;;7.20;99.90;;;;;;5091481;28;20068;-60
2022/03/13 03:50:02;;;;;;;21.88;15.80;;;7.20;99.90;;;;;;5091468;28;20071;-59
2022/03/13 03:52:28;;;;;;;19.67;14.23;;;7.20;99.90;;;;;;5094277;28;20040;-59
2022/03/13 03:54:53;;;;;;;23.08;14.57;;;7.10;99.90;;;;;;5095693;28;20036;-60
2022/03/13 03:57:19;;;;;;;21.20;14.45;;;7.20;99.90;;;;;;5095763;28;20044;-60
2022/03/13 03:59:45;;;;;;;22.23;16.23;;;7.10;99.90;;;;;;5095572;28;20045;-60
2022/03/13 04:02:12;;;;;;;20.70;14.80;;;7.10;99.90;;;;;;5095571;28;20043;-60
2022/03/13 04:04:39;;;;;;;23.45;15.27;;;7.00;99.90;;;;;;5094236;28;20048;-60
2022/03/13 04:07:05;;;;;;;21.98;15.88;;;7.00;99.90;;;;;;5095264;28;20031;-60
2022/03/13 04:09:31;;;;;;;18.17;14.20;;;7.00;99.90;;;;;;5095142;28;20048;-62
2022/03/13 04:11:57;;;;;;;21.52;14.30;;;6.90;99.90;;;;;;5095257;28;20364;-60
2022/03/13 04:14:23;;;;;;;19.38;15.20;;;6.90;99.90;;;;;;5095285;28;20040;-60
2022/03/13 04:16:52;;;;;;;21.65;14.52;;;6.90;99.90;;;;;;5095016;28;20059;-61
2022/03/13 04:19:19;;;;;;;20.45;15.27;;;6.90;99.90;;;;;;5095385;28;20048;-60
2022/03/13 04:21:45;;;;;;;21.50;14.90;;;6.80;99.90;;;;;;5094814;28;20136;-60
2022/03/13 04:24:11;;;;;;;20.25;14.27;;;6.80;99.90;;;;;;5094817;28;20368;-60
2022/03/13 04:26:39;;;;;;;26.90;15.30;;;6.80;99.90;;;;;;5094838;28;20069;-60
2022/03/13 04:29:09;;;;;;;20.02;15.63;;;6.70;99.90;;;;;;5094588;28;20040;-60
2022/03/13 04:31:39;;;;;;;24.92;15.73;;;6.70;99.90;;;;;;5094627;28;20055;-60
2022/03/13 04:34:05;;;;;;;20.85;16.10;;;6.70;99.90;;;;;;5094847;28;20110;-60
2022/03/13 04:36:33;;;;;;;22.23;16.00;;;6.60;99.90;;;;;;5093187;28;20068;-61
2022/03/13 04:38:59;;;;;;;20.40;14.50;;;6.60;99.90;;;;;;5095047;28;20473;-60
2022/03/13 04:41:25;;;;;;;21.48;15.52;;;6.60;99.90;;;;;;5094801;28;20036;-59
2022/03/13 04:43:53;;;;;;;20.67;13.95;;;6.50;99.90;;;;;;5094443;28;20073;-60
2022/03/13 04:46:18;;;;;;;20.70;14.68;;;6.50;99.90;;;;;;5094468;28;20062;-59
2022/03/13 04:48:44;;;;;;;19.58;15.57;;;6.50;99.90;;;;;;5094036;28;20040;-59
2022/03/13 04:51:10;;;;;;;18.27;14.15;;;6.50;99.90;;;;;;5094212;28;20047;-60
2022/03/13 04:53:36;;;;;;;22.30;14.77;;;6.50;99.90;;;;;;5094413;28;20043;-60
2022/03/13 04:56:02;;;;;;;21.20;14.10;;;6.50;99.90;;;;;;5094255;28;20413;-59
2022/03/13 04:58:28;;;;;;;19.05;14.43;;;6.50;99.90;;;;;;5094235;28;20121;-59
2022/03/13 05:00:53;;;;;;;21.98;15.02;;;6.60;99.90;;;;;;5094174;28;20071;-60
2022/03/13 05:03:19;;;;;;;21.77;15.23;;;6.50;99.90;;;;;;5093941;28;20409;-59
2022/03/13 05:05:45;;;;;;;18.48;14.05;;;6.60;99.90;;;;;;5093879;28;20402;-59
2022/03/13 05:08:15;;;;;;;26.23;14.73;;;6.50;99.90;;;;;;5093940;28;20040;-59
2022/03/13 05:10:43;;;;;;;21.52;14.48;;;6.50;99.90;;;;;;5093843;28;20482;-60
2022/03/13 05:13:11;;;;;;;17.60;13.85;;;6.50;99.90;;;;;;5093987;28;20051;-60
2022/03/13 05:15:37;;;;;;;19.40;14.20;;;6.50;99.90;;;;;;5092523;28;20483;-59
2022/03/13 05:18:03;;;;;;;21.58;14.20;;;6.50;99.90;;;;;;5093476;28;20039;-59
2022/03/13 05:20:31;;;;;;;21.17;14.57;;;6.40;99.90;;;;;;5092385;28;20044;-60
2022/03/13 05:22:57;;;;;;;22.77;14.38;;;6.40;99.90;;;;;;5093855;28;20108;-60
2022/03/13 05:25:24;;;;;;;19.60;13.70;;;6.30;99.90;;;;;;5093823;28;20052;-60
2022/03/13 05:27:53;;;;;;;23.40;14.93;;;6.30;99.90;;;;;;5093676;28;20040;-60
2022/03/13 05:30:20;;;;;;;;;;;6.30;99.90;;;;;;5093803;28;20122;-60
2022/03/13 05:32:49;;;;;;;21.38;14.75;;;6.20;99.90;;;;;;5093211;28;20028;-60
2022/03/13 05:35:16;;;;;;;22.23;14.18;;;6.20;99.90;;;;;;5093711;28;20136;-60
2022/03/13 05:37:42;;;;;;;18.25;13.73;;;6.20;99.90;;;;;;5093468;28;20119;-61
2022/03/13 05:40:13;;;;;;;19.88;14.73;;;6.10;99.90;;;;;;5093297;28;20119;-60
2022/03/13 05:42:45;;;;;;;19.38;13.63;;;6.10;99.90;;;;;;5093195;28;20048;-60
2022/03/13 05:45:13;;;;;;;19.33;14.32;;;6.10;99.90;;;;;;5093130;28;20118;-60
2022/03/13 05:47:48;;;;;;;19.42;13.50;;;6.10;99.90;;;;;;5093348;28;20040;-60
2022/03/13 05:50:15;;;;;;;27.38;14.82;;;6.00;99.90;;;;;;5093096;28;20170;-60
2022/03/13 05:52:43;;;;;;;16.75;13.05;;;6.00;99.90;;;;;;5093048;28;20115;-60
2022/03/13 05:55:09;;;;;;;19.20;13.82;;;6.00;99.90;;;;;;5092919;28;20486;-60
2022/03/13 05:57:35;;;;;;;18.98;13.55;;;6.00;99.90;;;;;;5092916;28;20536;-59
2022/03/13 06:00:02;;;;;;;21.40;13.68;;;6.00;99.90;;;;;;5091718;28;20040;-60
2022/03/13 06:02:28;;;;;;;20.05;13.77;;;6.00;99.90;;;;;;5092899;28;20516;-59
2022/03/13 06:04:54;;;;;;;19.38;13.88;;;6.00;99.90;;;;;;5091733;28;20071;-60
2022/03/13 06:07:21;;;;;;;21.95;14.05;;;6.10;99.90;;;;;;5092926;28;20050;-60
2022/03/13 06:09:46;;;;;;;21.58;13.90;;;6.10;99.90;;;;;;5092717;28;20040;-60
2022/03/13 06:12:13;;;;;;;20.15;14.30;;;6.10;99.90;;;;;;5092660;28;20036;-60
2022/03/13 06:14:39;;;;;;;17.60;13.73;;;6.10;99.90;;;;;;5092165;28;20093;-60
2022/03/13 06:17:05;;;;;;;22.70;13.57;;;6.20;99.90;;;;;;5092739;28;20036;-59
2022/03/13 06:19:30;;;;;;;20.17;14.00;;;6.20;99.90;;;;;;5092661;28;20051;-59
2022/03/13 06:21:56;;;;;;;19.27;13.48;;;6.20;99.90;;;;;;5092688;28;20040;-59
2022/03/13 06:24:22;;;;;;;20.80;13.48;;;6.20;99.90;;;;;;5092627;28;20119;-59
2022/03/13 06:26:47;;;;;;;19.00;13.35;;;6.20;99.90;;;;;;5092589;28;20052;-59
2022/03/13 06:29:13;;;;;;;24.77;14.35;;;6.30;99.90;;;;;;5093068;28;20044;-59
2022/03/13 06:31:40;;;;;;;18.00;12.88;;;6.30;99.90;;;;;;5090629;28;20106;-59
2022/03/13 06:34:07;;;;;;;21.00;13.43;;;6.30;99.90;;;;;;5092621;28;20044;-59
2022/03/13 06:36:34;;;;;;;19.95;13.38;;;6.40;99.90;;;;;;5092412;28;20217;-59
2022/03/13 06:39:00;;;;;;;17.25;13.13;;;6.50;99.90;;;;;;5092360;28;20119;-60
2022/03/13 06:41:26;;;;;;;21.52;13.27;;;6.50;99.90;;;;;;5092021;28;20052;-59
2022/03/13 06:43:53;;;;;;;22.13;13.55;;;6.40;99.90;;;;;;5092371;28;20089;-59
2022/03/13 06:46:18;;;;;;;22.30;13.98;;;6.40;99.90;;;;;;5092244;28;20042;-59
2022/03/13 06:48:44;;;;;;;16.35;12.60;;;6.40;99.90;;;;;;5092064;28;20047;-59
2022/03/13 06:51:10;;;;;;;18.73;12.35;;;6.40;99.90;;;;;;5092039;28;20039;-59
2022/03/13 06:53:35;;;;;;;19.35;12.07;;;6.40;99.90;;;;;;5092186;28;20138;-59
2022/03/13 06:56:02;;;;;;;23.23;12.85;;;6.40;99.90;;;;;;5092083;28;20048;-59
2022/03/13 06:58:28;;;;;;;19.85;12.77;;;6.40;99.90;;;;;;5092118;28;20035;-59
2022/03/13 07:00:54;;;;;;;17.88;12.05;;;6.40;99.90;;;;;;5091864;28;20043;-59
2022/03/13 07:03:19;;;;;;;16.08;12.25;;;6.50;99.90;;;;;;5091883;28;20036;-59
2022/03/13 07:05:46;;;;;;;22.08;13.52;;;6.40;99.90;;;;;;5091996;28;20119;-59
2022/03/13 07:08:13;;;;;;;17.63;12.88;;;6.50;99.90;;;;;;5091840;28;20125;-59
2022/03/13 07:10:39;;;;;;;19.13;12.95;;;6.50;99.90;;;;;;5090862;28;20096;-59
2022/03/13 07:13:05;;;;;;;18.90;13.07;;;6.50;99.90;;;;;;5091981;28;20398;-60
2022/03/13 07:15:31;;;;;;;16.77;11.80;;;6.50;99.90;;;;;;5091867;28;20040;-59
2022/03/13 07:17:58;;;;;;;18.77;12.77;;;6.60;99.90;;;;;;5091797;28;20043;-60
2022/03/13 07:20:24;;;;;;;19.38;12.35;;;6.60;99.90;;;;;;5088330;28;20367;-60
2022/03/13 07:22:50;;;;;;;18.33;12.32;;;6.60;99.90;;;;;;5071925;28;20041;-60
2022/03/13 07:25:16;;;;;;;24.90;13.40;;;6.60;99.90;;;;;;5071696;28;20446;-61
2022/03/13 07:27:42;;;;;;;18.17;12.02;;;6.70;99.90;;;;;;5073743;28;20049;-61
2022/03/13 07:30:12;;;;;;;17.58;12.80;;;6.70;99.90;;;;;;5076137;28;20048;-60
2022/03/13 07:32:40;;;;;;;16.98;12.38;;;6.70;99.90;;;;;;5075585;28;20048;-60
2022/03/13 07:35:10;;;;;;;19.70;12.30;;;6.70;99.90;;;;;;5088038;28;20086;-61
2022/03/13 07:37:36;;;;;;;22.63;12.15;;;6.80;99.90;;;;;;5092637;28;20048;-61
2022/03/13 07:40:03;;;;;;;21.17;12.75;;;6.80;99.90;;;;;;5095971;28;20089;-61
2022/03/13 07:42:31;;;;;;;16.17;11.63;;;6.90;99.90;;;;;;5085346;28;20668;-60
2022/03/13 07:44:57;;;;;;;17.48;11.80;;;6.90;99.90;;;;;;5087438;28;20043;-61
2022/03/13 07:47:22;;;;;;;17.58;12.70;;;6.90;99.90;;;;;;5095646;28;20044;-61
2022/03/13 07:49:48;;;;;;;20.95;12.70;;;7.00;99.90;;;;;;5095575;28;20048;-61
2022/03/13 07:52:14;;;;;;;19.38;12.55;;;7.00;99.90;;;;;;5095378;28;20120;-61
2022/03/13 07:54:39;;;;;;;16.23;12.82;;;7.00;99.90;;;;;;5085202;28;20041;-59
2022/03/13 07:57:05;;;;;;;20.30;12.63;;;7.10;99.90;;;;;;5075360;28;20139;-58
2022/03/13 07:59:31;;;;;;;14.65;12.10;;;7.10;99.90;;;;;;5083086;28;20050;-58
2022/03/13 08:01:56;;;;;;;21.55;12.75;;;7.10;99.90;;;;;;5095565;28;20032;-59
2022/03/13 08:04:24;;;;;;;15.32;12.35;;;7.10;99.90;;;;;;5095328;28;20074;-59
2022/03/13 08:06:50;;;;;;;17.25;12.70;;;7.10;99.90;;;;;;5085952;28;20037;-58
2022/03/13 08:09:15;;;;;;;16.67;12.40;;;7.20;99.90;;;;;;5075147;28;20043;-59
2022/03/13 08:11:42;;;;;;;17.88;11.27;;;7.30;99.90;;;;;;5075212;28;20071;-58
2022/03/13 08:14:08;;;;;;;17.92;11.88;;;7.30;99.90;;;;;;5074748;28;20041;-58
2022/03/13 08:16:35;;;;;;;16.30;12.65;;;7.40;99.90;;;;;;5093002;28;20060;-60
2022/03/13 08:19:01;;;;;;;18.35;11.38;;;7.40;99.90;;;;;;5094908;28;20527;-59
2022/03/13 08:21:27;;;;;;;19.10;12.50;;;7.40;99.90;;;;;;5075670;28;20419;-60
2022/03/13 08:23:54;;;;;;;17.92;12.35;;;7.60;99.90;;;;;;5075048;28;20047;-60
2022/03/13 08:26:20;;;;;;;17.42;12.30;;;7.60;99.90;;;;;;5091341;28;20044;-60
2022/03/13 08:28:46;;;;;;;22.02;12.27;;;7.70;99.90;;;;;;5083817;28;20572;-60
2022/03/13 08:31:12;;;;;;;16.45;11.07;;;7.80;99.90;;;;;;5074496;28;20387;-60
2022/03/13 08:33:37;;;;;;;14.50;11.05;;;8.00;99.90;;;;;;5073499;28;20040;-60
2022/03/13 08:36:04;;;;;;;20.40;12.63;;;8.20;99.90;;;;;;5072953;28;20034;-59
2022/03/13 08:38:30;;;;;;;19.30;12.75;;;8.40;99.90;;;;;;5073488;28;20509;-60
2022/03/13 08:40:56;;;;;;;17.80;10.90;;;8.50;99.90;;;;;;5087421;28;20129;-60
2022/03/13 08:43:22;;;;;;;17.20;11.70;;;8.70;99.90;;;;;;5093469;28;20036;-60
2022/03/13 08:45:48;;;;;;;20.05;11.68;;;8.90;99.90;;;;;;5093407;28;20528;-60
2022/03/13 08:48:14;;;;;;;14.43;11.05;;;9.10;99.90;;;;;;5093386;28;20028;-60
2022/03/13 08:50:40;;;;;;;16.88;11.07;;;9.30;99.90;;;;;;5093351;28;20065;-60
2022/03/13 08:53:07;;;;;;;16.75;10.82;;;9.40;99.90;;;;;;5093502;28;20125;-59
2022/03/13 08:55:32;;;;;;;17.85;11.98;;;9.80;99.90;;;;;;5093592;28;20089;-60
2022/03/13 08:57:58;;;;;;;16.48;11.02;;;10.10;99.90;;;;;;5093397;28;20036;-60
2022/03/13 09:00:27;;;;;;;16.77;10.98;;;10.50;99.90;;;;;;5085168;28;20036;-59
2022/03/13 09:02:53;;;;;;;14.45;10.88;;;11.10;99.90;;;;;;5073208;28;20044;-59
2022/03/13 09:05:20;;;;;;;12.95;10.68;;;11.40;99.90;;;;;;5072772;28;20387;-59
2022/03/13 09:07:46;;;;;;;15.93;11.30;;;11.80;99.90;;;;;;5073129;28;20040;-59
2022/03/13 09:10:12;;;;;;;16.10;10.98;;;11.80;99.90;;;;;;5072713;28;20032;-60
2022/03/13 09:12:38;;;;;;;16.25;12.10;;;12.00;99.90;;;;;;5073164;28;20116;-59
2022/03/13 09:15:05;;;;;;;14.75;11.00;;;11.90;99.10;;;;;;5072799;28;20058;-60
2022/03/13 09:17:31;;;;;;;13.75;10.40;;;11.80;99.90;;;;;;5072488;28;20487;-59
2022/03/13 09:19:58;;;;;;;14.38;10.63;;;11.90;99.90;;;;;;5072937;28;20076;-59
2022/03/13 09:22:30;;;;;;;15.60;10.90;;;12.10;99.20;;;;;;5078056;28;20048;-60
2022/03/13 09:24:57;;;;;;;17.00;10.70;;;12.20;99.80;;;;;;5093170;28;20040;-59
2022/03/13 09:27:24;;;;;;;15.45;11.13;;;12.20;98.60;;;;;;5092796;28;20040;-59
2022/03/13 09:29:50;;;;;;;14.90;11.02;;;12.60;98.00;;;;;;5092910;28;20036;-59
2022/03/13 09:32:16;;;;;;;15.10;10.40;;;12.60;97.30;;;;;;5055056;28;1080153;-59
2022/03/13 09:34:42;;;;;;;15.52;11.60;;;12.80;97.90;;;;;;5093659;28;20383;-59
2022/03/13 09:37:07;;;;;;;19.60;11.52;;;12.90;97.50;;;;;;5093479;28;20040;-58
2022/03/13 09:39:34;;;;;;;19.25;11.07;;;12.90;96.30;;;;;;5093504;28;20040;-58
2022/03/13 09:42:00;;;;;;;15.35;11.63;;;13.20;96.20;;;;;;5092783;28;20460;-59
2022/03/13 09:44:26;;;;;;;15.05;10.70;;;13.30;96.00;;;;;;5093513;28;20048;-59
2022/03/13 09:46:51;;;;;;;19.08;10.65;;;13.40;96.80;;;;;;5092192;28;20393;-58
2022/03/13 09:49:20;;;;;;;15.68;11.45;;;13.40;95.70;;;;;;5092516;28;20040;-59
2022/03/13 09:51:46;;;;;;;14.45;10.98;;;13.40;95.30;;;;;;5093465;28;20040;-59
2022/03/13 09:54:11;;;;;;;15.90;10.65;;;13.40;95.20;;;;;;5093283;28;20044;-59
2022/03/13 09:56:38;;;;;;;16.05;11.00;;;13.50;95.70;;;;;;5093275;28;20036;-58
2022/03/13 09:59:04;;;;;;;15.30;10.80;;;13.50;94.50;;;;;;5093198;28;20044;-59
2022/03/13 10:01:30;;;;;;;15.85;11.25;;;13.60;93.70;;;;;;5093062;28;20153;-59
2022/03/13 10:03:56;;;;;;;14.30;10.57;;;13.60;94.00;;;;;;5091910;28;20066;-59
2022/03/13 10:06:22;;;;;;;15.00;10.25;;;13.70;94.80;;;;;;5093142;28;20424;-59
2022/03/13 10:08:47;;;;;;;16.70;12.02;;;13.60;94.00;;;;;;5092927;28;20097;-59
2022/03/13 10:11:13;;;;;;;14.00;10.70;;;13.60;94.10;;;;;;5090967;28;20405;-58
2022/03/13 10:13:45;;;;;;;17.08;10.93;;;13.70;94.70;;;;;;5092725;28;20027;-59
2022/03/13 10:16:34;;;;;;;18.00;11.15;;;14.10;94.70;;;;;;5093101;28;20038;-59
2022/03/13 10:19:16;;;;;;;14.43;10.27;;;14.30;93.10;;;;;;5091728;28;20040;-60
2022/03/13 10:22:09;;;;;;;27.02;12.23;;;14.30;93.40;;;;;;5090749;28;20048;-60
2022/03/13 10:24:40;;;;;;;14.93;10.85;;;14.30;92.90;;;;;;5092997;28;20040;-60
2022/03/13 10:27:17;;;;;;;17.92;11.55;;;14.70;93.10;;;;;;5092679;28;20367;-60
2022/03/13 10:29:45;;;;;;;17.38;10.82;;;14.60;92.60;;;;;;5092600;28;20043;-60
2022/03/13 10:32:12;;;;;;;14.20;10.02;;;14.80;92.40;;;;;;5092459;28;20115;-60
2022/03/13 10:34:38;;;;;;;15.35;10.93;;;15.00;92.90;;;;;;5073318;28;20402;-60
2022/03/13 10:37:04;;;;;;;16.05;11.13;;;15.20;92.20;;;;;;5072057;28;20390;-59
2022/03/13 10:39:31;;;;;;;15.27;11.30;;;15.30;92.20;;;;;;5072444;28;20131;-59
2022/03/13 10:42:03;;;;;;;13.05;10.98;;;15.40;91.40;;;;;;5072485;28;20105;-59
2022/03/13 10:44:43;;;;;;;18.40;11.52;;;15.40;91.30;;;;;;5072083;28;20044;-59
2022/03/13 10:47:10;;;;;;;15.27;10.55;;;15.40;91.50;;;;;;5070869;28;20561;-58
2022/03/13 10:49:41;;;;;;;14.73;11.02;;;15.50;91.30;;;;;;5086938;28;20087;-62
2022/03/13 10:52:31;;;;;;;12.90;10.63;;;15.50;91.00;;;;;;5073377;28;20455;-59
2022/03/13 10:55:14;;;;;;;16.35;10.95;;;15.80;90.60;;;;;;5072055;28;20387;-60
2022/03/13 10:57:54;;;;;;;15.13;11.77;;;15.70;90.20;;;;;;5072039;28;20047;-59
2022/03/13 11:00:21;;;;;;;63.22;14.50;;;15.70;90.40;;;;;;5070123;28;20084;-59
2022/03/13 11:02:48;;;;;;;14.65;11.32;;;15.70;90.50;;;;;;5072168;28;20490;-58
2022/03/13 11:05:14;;;;;;;13.38;11.30;;;15.70;90.60;;;;;;5071868;28;20041;-59
2022/03/13 11:07:39;;;;;;;15.07;11.13;;;15.90;90.50;;;;;;5071870;28;20043;-59
2022/03/13 11:10:07;;;;;;;21.58;11.90;;;16.00;90.30;;;;;;5071724;28;20037;-59
2022/03/13 11:12:34;;;;;;;14.95;11.07;;;16.00;90.00;;;;;;5071422;28;20536;-59
2022/03/13 11:15:02;;;;;;;15.25;11.88;;;16.10;90.00;;;;;;5073442;28;20413;-59
2022/03/13 11:17:33;;;;;;;12.43;10.35;;;16.10;89.00;;;;;;5091995;28;20082;-59
2022/03/13 11:20:00;;;;;;;15.48;10.70;;;16.50;90.30;;;;;;5091636;28;20044;-59
2022/03/13 11:22:27;;;;;;;19.10;11.48;;;16.50;89.70;;;;;;5091745;28;20382;-59
2022/03/13 11:25:05;;;;;;;18.17;11.60;;;16.70;89.60;;;;;;5091524;28;20043;-59
2022/03/13 11:27:33;;;;;;;16.25;11.57;;;17.00;90.50;;;;;;5091961;28;20036;-59
2022/03/13 11:29:59;;;;;;;14.65;11.20;;;17.30;90.60;;;;;;5091659;28;20036;-59
2022/03/13 11:32:45;;;;;;;15.05;11.13;;;17.60;90.10;;;;;;5091406;28;20044;-59
2022/03/13 11:35:11;;;;;;;17.33;12.05;;;17.40;88.90;;;;;;5091566;28;20048;-59
2022/03/13 11:37:37;;;;;;;15.18;11.95;;;17.50;88.90;;;;;;5091772;28;20040;-59
2022/03/13 11:40:05;;;;;;;12.68;10.68;;;17.50;87.40;;;;;;5091782;28;20044;-59
2022/03/13 11:42:47;;;;;;;14.50;11.93;;;17.50;86.80;;;;;;5091636;28;20043;-59
2022/03/13 11:45:31;;;;;;;13.95;11.23;;;17.60;87.90;;;;;;5091534;28;20093;-58
2022/03/13 11:48:19;;;;;;;15.38;11.70;;;17.70;87.50;;;;;;5091701;28;20054;-58
2022/03/13 11:51:04;;;;;;;13.88;10.68;;;17.70;86.30;;;;;;5091510;28;20050;-58
2022/03/13 11:53:45;;;;;;;12.25;10.77;;;17.70;87.50;;;;;;5091447;28;20039;-58
2022/03/13 11:56:27;;;;;;;14.60;11.32;;;17.80;85.70;;;;;;5091381;28;20536;-59
2022/03/13 11:58:58;;;;;;;14.90;10.85;;;17.80;86.30;;;;;;5090182;28;20127;-59
2022/03/13 12:01:38;;;;;;;12.38;10.52;;;17.80;86.30;;;;;;5091478;28;20043;-58
2022/03/13 12:04:03;;;;;;;16.70;11.45;;;18.00;86.80;;;;;;5091410;28;20040;-59
2022/03/13 12:06:41;;;;;;;17.10;11.57;;;18.00;85.30;;;;;;5091143;28;20070;-59
2022/03/13 12:09:13;;;;;;;14.75;11.18;;;18.10;85.30;;;;;;5091335;28;20047;-59
2022/03/13 12:11:45;;;;;;;11.82;10.30;;;17.90;85.00;;;;;;5091459;28;20444;-58
2022/03/13 12:14:16;;;;;;;13.07;10.35;;;17.80;84.50;;;;;;5094009;28;20387;-59
2022/03/13 12:16:43;;;;;;;14.63;10.70;;;17.80;83.90;;;;;;5094930;28;20036;-59
2022/03/13 12:19:10;;;;;;;14.57;10.30;;;17.80;84.00;;;;;;5095236;28;20039;-59
2022/03/13 12:21:37;;;;;;;13.63;10.52;;;17.90;86.10;;;;;;5094912;28;20040;-59
2022/03/13 12:24:18;;;;;;;14.73;10.35;;;17.90;85.00;;;;;;5093593;28;20104;-59
2022/03/13 12:26:45;;;;;;;15.23;10.57;;;17.90;83.70;;;;;;5075815;28;20051;-59
2022/03/13 12:29:16;;;;;;;12.38;10.25;;;17.90;83.30;;;;;;5094603;28;20086;-58
2022/03/13 12:31:48;;;;;;;13.00;10.45;;;17.80;83.00;;;;;;5094705;28;20124;-58
2022/03/13 12:34:28;;;;;;;14.18;10.30;;;17.80;83.30;;;;;;5093696;28;20036;-58
2022/03/13 12:36:54;;;;;;;17.70;11.32;;;17.90;82.90;;;;;;5094658;28;20055;-58